Time;durP1;ratioP1;P1;durP2;ratioP2;P2;SDS_P1;SDS_P2;PMS_P1;PMS_P2;Temp;Humidity;BMP_temperature;BMP_pressure;BME280_temperature;BME280_humidity;BME280_pressure;Samples;Min_cycle;Max_cycle;Signal;HPM_P1;HPM_P2
2021/12/06 00:00:19;;;;;;;4.63;1.60;;;;;;;18.63;52.40;99618.38;5084623;28;20464;-62
2021/12/06 00:02:44;;;;;;;5.80;2.10;;;;;;;18.68;52.19;99628.59;5098458;28;20190;-62
2021/12/06 00:05:10;;;;;;;6.50;2.07;;;;;;;18.66;52.33;99628.19;5092010;28;20420;-62
2021/12/06 00:07:38;;;;;;;3.47;1.53;;;;;;;18.63;52.21;99629.81;5093041;28;20645;-62
2021/12/06 00:10:04;;;;;;;3.17;1.80;;;;;;;18.64;52.30;99625.72;5093706;28;20232;-63
2021/12/06 00:12:30;;;;;;;3.57;1.77;;;;;;;18.66;51.98;99631.84;5076816;28;20783;-61
2021/12/06 00:14:55;;;;;;;2.33;1.77;;;;;;;18.66;52.14;99633.91;5118237;27;20418;-61
2021/12/06 00:17:21;;;;;;;3.73;1.77;;;;;;;18.67;52.33;99632.69;5134490;27;20236;-61
2021/12/06 00:19:46;;;;;;;4.10;2.37;;;;;;;18.60;52.70;99636.31;5135892;27;20177;-61
2021/12/06 00:22:14;;;;;;;4.50;2.00;;;;;;;18.61;52.26;99634.28;5127312;27;20202;-63
2021/12/06 00:24:55;;;;;;;4.20;1.93;;;;;;;18.62;52.27;99630.19;5116483;27;20264;-62
2021/12/06 00:27:21;;;;;;;4.07;2.30;;;;;;;18.62;52.23;99633.88;5097383;28;20452;-63
2021/12/06 00:29:47;;;;;;;3.30;1.80;;;;;;;18.62;52.17;99636.72;5107690;28;20479;-63
2021/12/06 00:32:13;;;;;;;5.57;1.57;;;;;;;18.63;52.37;99643.28;5075675;28;20239;-62
2021/12/06 00:34:39;;;;;;;3.10;1.60;;;;;;;18.66;52.54;99639.63;5094535;28;20413;-62
2021/12/06 00:37:17;;;;;;;4.20;1.80;;;;;;;18.63;52.35;99649.81;5108006;28;20198;-62
2021/12/06 00:39:48;;;;;;;3.50;1.73;;;;;;;18.63;52.45;99651.84;5111470;27;20424;-61
2021/12/06 00:42:14;;;;;;;2.83;1.70;;;;;;;18.64;52.29;99654.31;5105313;28;20432;-62
2021/12/06 00:44:39;;;;;;;3.30;1.70;;;;;;;18.61;52.55;99665.72;5093796;28;20432;-62
2021/12/06 00:47:05;;;;;;;2.83;1.70;;;;;;;18.57;52.61;99659.97;5107422;28;20178;-62
2021/12/06 00:49:32;;;;;;;4.23;1.57;;;;;;;18.64;52.19;99660.03;5093040;28;20205;-63
2021/12/06 00:51:57;;;;;;;5.90;1.77;;;;;;;18.62;52.37;99656.72;5098949;28;20437;-63
2021/12/06 00:54:22;;;;;;;4.60;1.93;;;;;;;18.60;52.67;99658.34;5095047;28;20428;-63
2021/12/06 00:56:48;;;;;;;3.20;1.90;;;;;;;18.61;52.23;99662.88;5095373;28;20459;-62
2021/12/06 00:59:13;;;;;;;2.97;1.70;;;;;;;18.62;52.16;99673.09;5113581;28;20220;-62
2021/12/06 01:01:39;;;;;;;3.20;1.90;;;;;;;18.62;52.56;99675.94;5113194;28;20161;-62
2021/12/06 01:04:04;;;;;;;3.50;1.80;;;;;;;18.63;52.44;99674.72;5110232;28;20219;-63
2021/12/06 01:06:31;;;;;;;3.43;1.70;;;;;;;18.59;52.31;99676.72;5074590;28;20193;-62
2021/12/06 01:08:56;;;;;;;4.70;1.80;;;;;;;18.61;52.45;99686.53;5094704;28;20250;-62
2021/12/06 01:11:22;;;;;;;3.07;1.63;;;;;;;18.62;52.56;99685.31;5107700;28;20415;-62
2021/12/06 01:13:47;;;;;;;4.63;1.77;;;;;;;18.55;52.40;99690.16;5113342;28;20223;-62
2021/12/06 01:16:13;;;;;;;3.53;1.97;;;;;;;18.55;52.45;99702.44;5104035;27;20174;-62
2021/12/06 01:18:38;;;;;;;2.70;1.50;;;;;;;18.54;52.69;99703.66;5110561;28;20174;-62
2021/12/06 01:21:15;;;;;;;3.07;1.50;;;;;;;18.56;52.41;99709.78;5112333;28;20208;-62
2021/12/06 01:24:00;;;;;;;2.40;1.50;;;;;;;18.55;52.54;99719.59;5113931;28;20177;-62
2021/12/06 01:29:44;;;;;;;4.00;1.60;;;;;;;18.55;52.36;99718.75;5075076;28;20982;-62
2021/12/06 01:40:07;;;;;;;2.90;1.63;;;;;;;18.60;52.49;99741.25;5113826;28;20956;-62
2021/12/06 01:42:33;;;;;;;7.37;1.63;;;;;;;18.58;52.45;99747.41;5102323;28;20475;-62
2021/12/06 01:44:58;;;;;;;3.20;2.00;;;;;;;18.57;52.52;99751.44;5112592;28;20419;-62
2021/12/06 01:47:29;;;;;;;2.87;1.40;;;;;;;18.60;52.35;99753.53;5108847;28;20641;-63
2021/12/06 01:49:57;;;;;;;3.03;1.67;;;;;;;18.56;52.46;99760.44;5109791;27;20225;-62
2021/12/06 01:52:31;;;;;;;3.50;1.80;;;;;;;18.54;52.35;99757.97;5112487;27;20420;-62
2021/12/06 01:54:56;;;;;;;2.33;1.37;;;;;;;18.57;52.33;99765.72;5112014;28;20427;-62
2021/12/06 01:57:23;;;;;;;2.20;1.30;;;;;;;18.54;52.42;99755.09;5094133;28;20925;-62
2021/12/06 01:59:48;;;;;;;3.33;1.40;;;;;;;18.56;52.55;99769.81;5108906;28;20256;-62
2021/12/06 02:02:14;;;;;;;2.70;1.60;;;;;;;18.60;52.17;99769.84;5094046;28;20435;-63
2021/12/06 02:04:40;;;;;;;3.97;1.80;;;;;;;18.55;52.44;99758.78;5093923;28;20177;-63
2021/12/06 02:07:06;;;;;;;3.00;1.40;;;;;;;18.57;52.39;99762.88;5105310;28;20427;-62
2021/12/06 02:09:32;;;;;;;2.27;1.30;;;;;;;18.56;52.41;99764.09;5107114;28;20209;-62
2021/12/06 02:12:01;;;;;;;3.27;1.67;;;;;;;18.52;52.56;99766.09;5098471;28;20431;-63
2021/12/06 02:14:36;;;;;;;2.57;1.70;;;;;;;18.53;52.28;99767.75;5103943;27;20181;-63
2021/12/06 02:17:18;;;;;;;3.17;1.50;;;;;;;18.54;52.33;99769.41;5096377;28;20478;-62
2021/12/06 02:19:47;;;;;;;2.90;1.60;;;;;;;18.55;52.24;99765.31;5074851;28;20397;-62
2021/12/06 02:22:19;;;;;;;3.27;1.43;;;;;;;18.51;52.71;99772.22;5074730;28;20469;-63
2021/12/06 02:24:45;;;;;;;3.60;1.50;;;;;;;18.50;52.41;99776.28;5094783;28;20456;-62
2021/12/06 02:27:11;;;;;;;3.10;1.70;;;;;;;18.49;52.68;99781.19;5110605;28;20431;-62
2021/12/06 02:29:36;;;;;;;2.80;1.50;;;;;;;18.53;52.21;99782.06;5112393;28;20209;-62
2021/12/06 02:32:09;;;;;;;3.50;1.53;;;;;;;18.51;52.37;99798.75;5113887;27;20443;-62
2021/12/06 02:34:34;;;;;;;2.83;1.30;;;;;;;18.52;52.37;99791.81;5112292;27;20258;-63
2021/12/06 02:37:00;;;;;;;3.70;1.60;;;;;;;18.54;52.37;99797.16;5092073;28;21277;-63
2021/12/06 02:39:28;;;;;;;2.90;1.53;;;;;;;18.54;52.31;99798.00;5091610;28;20232;-63
2021/12/06 02:41:54;;;;;;;3.17;1.73;;;;;;;18.49;52.46;99806.09;5092351;28;20174;-63
2021/12/06 02:44:19;;;;;;;3.23;1.60;;;;;;;18.53;52.46;99804.09;5099366;28;20443;-63
2021/12/06 02:46:45;;;;;;;2.10;1.20;;;;;;;18.48;52.69;99802.44;5091634;28;20166;-63
2021/12/06 02:49:11;;;;;;;2.80;1.40;;;;;;;18.48;52.54;99810.16;5091936;28;20222;-62
2021/12/06 02:51:36;;;;;;;2.23;1.40;;;;;;;18.51;52.30;99801.63;5092986;28;20178;-63
2021/12/06 02:54:02;;;;;;;2.53;1.57;;;;;;;18.48;52.52;99804.44;5095327;28;20712;-62
2021/12/06 02:56:49;;;;;;;5.20;1.63;;;;;;;18.48;52.38;99805.28;5090624;28;20190;-63
2021/12/06 02:59:15;;;;;;;3.53;1.70;;;;;;;18.48;52.57;99799.56;5098720;28;20354;-62
2021/12/06 03:01:45;;;;;;;5.17;1.47;;;;;;;18.48;52.62;99793.84;5111508;28;20420;-62
2021/12/06 03:04:11;;;;;;;2.40;1.60;;;;;;;18.47;52.72;99799.94;5105651;28;20552;-62
2021/12/06 03:06:37;;;;;;;3.00;1.37;;;;;;;18.46;52.62;99809.75;5094202;28;21097;-62
2021/12/06 03:09:10;;;;;;;2.83;1.20;;;;;;;18.48;52.50;99802.44;5089094;28;20452;-62
2021/12/06 03:11:42;;;;;;;2.70;1.40;;;;;;;18.48;52.37;99813.84;5100114;28;20177;-62
2021/12/06 03:14:09;;;;;;;2.43;1.60;;;;;;;18.49;52.63;99824.06;5090764;28;20502;-63
2021/12/06 03:16:34;;;;;;;2.80;1.63;;;;;;;18.47;52.62;99815.03;5123688;27;20429;-61
2021/12/06 03:19:00;;;;;;;2.87;1.23;;;;;;;18.50;52.48;99824.88;5096082;28;20424;-60
2021/12/06 03:21:26;;;;;;;2.20;1.30;;;;;;;18.48;52.42;99825.28;5090281;28;20993;-60
2021/12/06 03:23:53;;;;;;;2.10;1.33;;;;;;;18.49;52.20;99818.34;5101720;28;20435;-60
2021/12/06 03:26:18;;;;;;;3.13;1.70;;;;;;;18.47;52.23;99826.47;5105344;28;20634;-60
2021/12/06 03:28:44;;;;;;;3.20;1.40;;;;;;;18.46;52.36;99829.75;5105715;28;20455;-60
2021/12/06 03:31:10;;;;;;;2.10;1.43;;;;;;;18.50;52.44;99824.88;5109864;28;20170;-60
2021/12/06 03:33:36;;;;;;;3.20;1.50;;;;;;;18.47;52.31;99831.41;5098525;28;20190;-60
2021/12/06 03:36:03;;;;;;;2.67;1.63;;;;;;;18.50;52.52;99839.16;5090894;28;20247;-61
2021/12/06 03:38:28;;;;;;;2.37;1.47;;;;;;;18.51;52.47;99837.97;5091145;28;20416;-61
2021/12/06 03:40:54;;;;;;;2.60;1.30;;;;;;;18.50;52.59;99842.03;5093523;28;20927;-60
2021/12/06 03:43:19;;;;;;;2.40;1.63;;;;;;;18.46;52.30;99836.28;5092503;28;20171;-60
2021/12/06 03:45:45;;;;;;;2.43;1.33;;;;;;;18.45;52.60;99846.06;5083260;28;20177;-61
2021/12/06 03:48:10;;;;;;;2.67;1.73;;;;;;;18.44;52.52;99843.59;5103361;28;20178;-60
2021/12/06 03:50:35;;;;;;;4.07;1.10;;;;;;;18.45;52.55;99845.22;5090497;28;20174;-61
2021/12/06 03:53:01;;;;;;;2.60;1.53;;;;;;;18.44;52.51;99850.16;5109105;28;20189;-61
2021/12/06 03:55:26;;;;;;;3.10;1.53;;;;;;;18.43;52.43;99854.22;5108082;28;20753;-60
2021/12/06 03:57:52;;;;;;;3.90;1.50;;;;;;;18.48;52.38;99859.59;5097166;28;20178;-60
2021/12/06 04:00:17;;;;;;;2.50;1.53;;;;;;;18.49;52.40;99868.97;5110252;28;20271;-60
2021/12/06 04:02:43;;;;;;;2.47;1.57;;;;;;;18.48;52.41;99870.19;5104700;28;20186;-61
2021/12/06 04:05:09;;;;;;;2.30;1.50;;;;;;;18.48;52.24;99873.88;5103210;28;20181;-60
2021/12/06 04:07:34;;;;;;;3.67;1.73;;;;;;;18.43;52.60;99870.53;5109920;28;20173;-61
2021/12/06 04:09:59;;;;;;;2.60;1.30;;;;;;;18.45;52.48;99876.69;5107328;28;20578;-61
2021/12/06 04:12:25;;;;;;;2.30;1.63;;;;;;;18.47;52.42;99883.66;5092580;28;20173;-60
2021/12/06 04:14:51;;;;;;;2.37;1.30;;;;;;;18.49;52.19;99884.09;5092264;28;20170;-60
2021/12/06 04:17:17;;;;;;;3.03;1.50;;;;;;;18.48;52.35;99895.91;5095644;28;20642;-60
2021/12/06 04:19:42;;;;;;;2.30;1.30;;;;;;;18.52;52.03;99885.34;5089515;28;20413;-60
2021/12/06 04:22:09;;;;;;;1.97;1.20;;;;;;;18.47;52.45;99894.28;5090253;28;20194;-60
2021/12/06 04:24:34;;;;;;;3.27;1.60;;;;;;;18.48;52.43;99891.03;5106519;28;20188;-60
2021/12/06 04:27:02;;;;;;;2.43;1.40;;;;;;;18.50;52.26;99899.19;5109624;28;20864;-60
2021/12/06 04:29:28;;;;;;;2.83;1.50;;;;;;;18.50;51.76;99902.06;5101811;28;20236;-60
2021/12/06 04:31:55;;;;;;;2.83;1.60;;;;;;;18.46;52.23;99916.31;5109078;28;20780;-60
2021/12/06 04:34:20;;;;;;;3.70;1.77;;;;;;;18.48;52.38;99915.94;5110953;28;20173;-60
2021/12/06 04:36:46;;;;;;;4.37;2.27;;;;;;;18.44;52.36;99915.88;5097499;28;20428;-61
2021/12/06 04:39:13;;;;;;;2.47;1.37;;;;;;;18.49;52.16;99912.69;5089035;28;20162;-60
2021/12/06 04:41:38;;;;;;;2.60;1.50;;;;;;;18.49;52.27;99921.25;5092600;28;20170;-61
2021/12/06 04:44:04;;;;;;;2.60;1.90;;;;;;;18.51;52.10;99924.53;5094603;28;20899;-61
2021/12/06 04:46:30;;;;;;;2.43;1.33;;;;;;;18.44;52.51;99935.06;5090289;28;20197;-61
2021/12/06 04:48:55;;;;;;;2.30;1.47;;;;;;;18.46;52.20;99927.75;5108836;28;20213;-61
2021/12/06 04:51:21;;;;;;;2.53;1.43;;;;;;;18.46;52.33;99932.66;5109976;28;20844;-61
2021/12/06 04:53:47;;;;;;;2.97;1.60;;;;;;;18.43;52.63;99945.69;5106669;28;20182;-61
2021/12/06 04:56:29;;;;;;;2.20;1.30;;;;;;;18.48;52.62;99947.38;5095022;28;20603;-61
2021/12/06 04:59:00;;;;;;;2.80;1.80;;;;;;;18.46;52.39;99959.19;5095761;28;20451;-61
2021/12/06 05:01:28;;;;;;;2.20;1.43;;;;;;;18.45;52.36;99960.41;5108039;28;20436;-61
2021/12/06 05:03:54;;;;;;;2.63;1.53;;;;;;;18.48;52.39;99959.63;5113239;28;20412;-61
2021/12/06 05:06:25;;;;;;;3.00;1.40;;;;;;;18.51;52.08;99970.28;5103384;28;20432;-61
2021/12/06 05:08:52;;;;;;;3.67;1.50;;;;;;;18.48;52.32;99975.94;5107129;28;20459;-60
2021/12/06 05:11:19;;;;;;;3.50;2.10;;;;;;;18.52;52.23;99980.50;5112645;28;20830;-60
2021/12/06 05:13:44;;;;;;;2.53;1.40;;;;;;;18.53;52.12;99973.59;5102466;28;20488;-60
2021/12/06 05:16:10;;;;;;;2.93;1.60;;;;;;;18.53;52.18;99976.44;5128083;27;20929;-60
2021/12/06 05:18:35;;;;;;;2.30;1.50;;;;;;;18.50;52.24;99974.34;5125792;27;20162;-61
2021/12/06 05:21:00;;;;;;;2.40;1.60;;;;;;;18.53;52.04;99973.59;5105970;28;20292;-61
2021/12/06 05:23:26;;;;;;;2.40;1.20;;;;;;;18.44;52.26;99993.06;5092585;28;20265;-60
2021/12/06 05:25:51;;;;;;;2.10;1.30;;;;;;;18.51;51.89;99984.56;5097929;28;20269;-60
2021/12/06 05:28:21;;;;;;;2.17;1.30;;;;;;;18.50;52.26;99990.66;5094754;28;20173;-60
2021/12/06 05:30:48;;;;;;;2.30;1.20;;;;;;;18.50;52.30;99982.94;5113223;28;20174;-61
2021/12/06 05:33:27;;;;;;;2.63;1.37;;;;;;;18.48;52.63;99993.94;5113560;28;20507;-60
2021/12/06 05:35:53;;;;;;;2.60;1.50;;;;;;;18.50;52.39;99996.38;5104491;28;20472;-60
2021/12/06 05:38:18;;;;;;;2.70;1.73;;;;;;;18.48;52.40;99995.97;5113289;28;20435;-61
2021/12/06 05:40:46;;;;;;;2.53;1.67;;;;;;;18.51;52.11;99995.19;5113668;28;20181;-61
2021/12/06 05:43:12;;;;;;;2.00;1.20;;;;;;;18.48;52.43;100004.53;5110932;28;20520;-60
2021/12/06 05:45:37;;;;;;;2.50;1.50;;;;;;;18.50;51.98;100005.78;5097468;28;20439;-60
2021/12/06 05:48:03;;;;;;;1.97;1.20;;;;;;;18.49;52.31;100012.72;5092493;28;20178;-61
2021/12/06 05:50:29;;;;;;;2.50;1.53;;;;;;;18.50;51.99;100017.22;5092427;28;20198;-60
2021/12/06 05:52:54;;;;;;;2.20;1.27;;;;;;;18.56;51.81;100023.44;5097025;27;20471;-61
2021/12/06 05:55:20;;;;;;;2.77;1.40;;;;;;;18.49;52.04;100035.59;5117033;27;20646;-60
2021/12/06 05:57:46;;;;;;;2.57;1.50;;;;;;;18.51;51.88;100038.88;5112569;28;20172;-60
2021/12/06 06:00:13;;;;;;;2.50;1.40;;;;;;;18.52;52.07;100031.94;5108979;28;20222;-61
2021/12/06 06:02:38;;;;;;;2.30;1.23;;;;;;;18.54;52.04;100032.41;5105702;28;20201;-60
2021/12/06 06:05:04;;;;;;;2.90;1.80;;;;;;;18.50;52.01;100037.25;5094368;28;20916;-61
2021/12/06 06:07:30;;;;;;;2.40;1.50;;;;;;;18.49;52.26;100044.19;5099607;28;20217;-60
2021/12/06 06:09:55;;;;;;;3.70;2.10;;;;;;;18.45;52.38;100051.88;5103670;27;20895;-60
2021/12/06 06:12:21;;;;;;;3.00;1.50;;;;;;;18.49;52.27;100052.75;5092357;28;20174;-61
2021/12/06 06:14:46;;;;;;;2.50;1.37;;;;;;;18.50;52.18;100057.25;5090677;27;20176;-60
2021/12/06 06:17:14;;;;;;;2.60;1.47;;;;;;;18.48;52.17;100067.44;5129737;27;20176;-60
2021/12/06 06:19:43;;;;;;;2.20;1.20;;;;;;;18.50;51.95;100073.56;5100292;28;20170;-62
2021/12/06 06:22:08;;;;;;;2.23;1.40;;;;;;;18.46;52.13;100082.09;5095891;28;20436;-60
2021/12/06 06:24:34;;;;;;;2.27;1.30;;;;;;;18.50;51.91;100087.88;5091757;28;20432;-60
2021/12/06 06:26:59;;;;;;;3.93;1.70;;;;;;;18.48;51.87;100085.41;5111108;28;20184;-61
2021/12/06 06:29:25;;;;;;;2.57;1.40;;;;;;;18.52;51.99;100091.19;5111821;28;20201;-62
2021/12/06 06:31:51;;;;;;;2.20;1.33;;;;;;;18.46;52.50;100095.59;5102267;28;20189;-61
2021/12/06 06:34:16;;;;;;;2.90;1.90;;;;;;;18.49;52.20;100095.63;5075762;28;20916;-60
2021/12/06 06:36:41;;;;;;;3.30;1.87;;;;;;;18.46;52.61;100104.16;5091787;28;20622;-61
2021/12/06 06:39:07;;;;;;;4.10;1.87;;;;;;;18.49;52.17;100109.94;5092146;28;20181;-60
2021/12/06 06:41:35;;;;;;;2.90;1.67;;;;;;;18.54;52.07;100115.31;5099230;28;20653;-60
2021/12/06 06:44:00;;;;;;;2.20;1.40;;;;;;;18.47;52.09;100118.03;5100951;27;20200;-61
2021/12/06 06:46:26;;;;;;;3.30;1.90;;;;;;;18.52;51.66;100109.13;5088407;28;20463;-60
2021/12/06 06:48:51;;;;;;;2.27;1.40;;;;;;;18.50;52.19;100110.72;5091360;28;20209;-60
2021/12/06 06:51:17;;;;;;;2.90;1.77;;;;;;;18.49;52.15;100115.66;5091445;28;20186;-60
2021/12/06 06:53:42;;;;;;;3.27;1.80;;;;;;;18.54;52.00;100117.34;5103865;27;20657;-60
2021/12/06 06:56:08;;;;;;;2.63;1.80;;;;;;;18.49;52.36;100123.38;5090821;28;20185;-60
2021/12/06 06:58:33;;;;;;;2.37;1.47;;;;;;;18.48;52.39;100130.31;5093782;28;20178;-60
2021/12/06 07:00:59;;;;;;;2.13;1.33;;;;;;;18.47;52.11;100135.19;5110915;28;20531;-61
2021/12/06 07:03:24;;;;;;;2.33;1.50;;;;;;;18.50;51.91;100140.16;5110510;28;20170;-61
2021/12/06 07:05:50;;;;;;;2.90;1.70;;;;;;;18.56;51.84;100137.81;5094027;28;20547;-61
2021/12/06 07:08:15;;;;;;;2.77;1.80;;;;;;;18.53;51.85;100145.13;5100482;28;20261;-64
2021/12/06 07:10:49;;;;;;;2.60;1.50;;;;;;;18.50;51.87;100150.75;5110320;28;20206;-62
2021/12/06 07:13:14;;;;;;;2.50;1.33;;;;;;;18.50;51.92;100145.03;5107751;28;20181;-61
2021/12/06 07:15:40;;;;;;;2.87;1.70;;;;;;;18.51;52.38;100152.44;5123392;27;20755;-61
2021/12/06 07:18:05;;;;;;;3.10;1.60;;;;;;;18.51;51.99;100150.38;5112391;27;20188;-60
2021/12/06 07:20:32;;;;;;;2.97;1.73;;;;;;;18.52;52.03;100154.88;5098403;28;20182;-60
2021/12/06 07:22:57;;;;;;;2.70;1.60;;;;;;;18.46;52.39;100159.28;5090638;28;20182;-60
2021/12/06 07:25:23;;;;;;;2.90;1.50;;;;;;;18.51;52.10;100153.22;5091348;28;20423;-60
2021/12/06 07:27:49;;;;;;;2.70;1.47;;;;;;;18.52;52.13;100154.88;5099038;28;20851;-60
2021/12/06 07:30:16;;;;;;;2.27;1.33;;;;;;;18.50;52.05;100160.16;5096606;28;20206;-60
2021/12/06 07:32:41;;;;;;;2.60;1.40;;;;;;;18.51;52.02;100166.72;5092923;28;20178;-60
2021/12/06 07:35:08;;;;;;;2.70;1.50;;;;;;;18.53;51.78;100162.28;5096437;28;20477;-60
2021/12/06 07:37:33;;;;;;;2.87;1.70;;;;;;;18.48;52.37;100162.59;5089865;28;20216;-61
2021/12/06 07:39:59;;;;;;;2.23;1.47;;;;;;;18.51;51.89;100173.25;5090960;28;20409;-60
2021/12/06 07:42:24;;;;;;;2.60;1.47;;;;;;;18.49;52.08;100178.53;5095941;28;20699;-60
2021/12/06 07:44:50;;;;;;;3.10;1.60;;;;;;;18.52;52.13;100185.53;5111212;28;20640;-60
2021/12/06 07:47:16;;;;;;;2.93;1.60;;;;;;;18.52;51.94;100183.47;5105723;28;20178;-61
2021/12/06 07:49:45;;;;;;;2.80;1.60;;;;;;;18.55;52.16;100196.16;5105368;28;20454;-61
2021/12/06 07:52:10;;;;;;;2.63;1.63;;;;;;;18.53;52.15;100184.31;5109133;28;20158;-60
2021/12/06 07:54:36;;;;;;;2.00;1.40;;;;;;;18.53;51.92;100199.44;5103897;28;20450;-60
2021/12/06 07:57:02;;;;;;;4.17;2.10;;;;;;;18.55;51.77;100199.88;5092600;28;20170;-60
2021/12/06 07:59:27;;;;;;;3.13;1.90;;;;;;;18.58;51.76;100196.25;5098582;28;20292;-60
2021/12/06 08:01:53;;;;;;;3.10;1.80;;;;;;;18.51;52.00;100196.13;5113153;28;20170;-61
2021/12/06 08:04:18;;;;;;;2.50;1.50;;;;;;;18.50;52.11;100194.47;5097360;28;20182;-61
2021/12/06 08:06:44;;;;;;;4.10;1.53;;;;;;;18.53;52.02;100196.56;5096335;28;20584;-60
2021/12/06 08:09:09;;;;;;;2.93;1.63;;;;;;;18.56;51.91;100195.78;5089856;28;20202;-60
2021/12/06 08:11:35;;;;;;;2.80;1.60;;;;;;;18.53;52.04;100205.16;5094380;28;20179;-60
2021/12/06 08:14:00;;;;;;;2.63;1.67;;;;;;;18.55;51.71;100207.59;5110653;28;20550;-60
2021/12/06 08:16:29;;;;;;;2.97;1.70;;;;;;;18.54;51.80;100212.50;5123834;28;20622;-61
2021/12/06 08:18:55;;;;;;;2.20;1.40;;;;;;;18.55;52.04;100217.03;5102353;28;20196;-60
2021/12/06 08:21:21;;;;;;;2.70;1.30;;;;;;;18.58;51.88;100221.97;5091896;28;20415;-61
2021/12/06 08:23:49;;;;;;;3.63;1.97;;;;;;;18.56;51.68;100224.38;5100550;28;20244;-61
2021/12/06 08:26:14;;;;;;;2.70;1.60;;;;;;;18.55;52.03;100222.72;5093782;28;20793;-61
2021/12/06 08:28:40;;;;;;;2.60;1.70;;;;;;;18.56;51.91;100224.38;5092376;28;20538;-61
2021/12/06 08:31:06;;;;;;;2.33;1.47;;;;;;;18.52;52.16;100229.22;5094007;28;20182;-60
2021/12/06 08:33:31;;;;;;;2.87;1.43;;;;;;;18.54;51.74;100228.84;5107705;28;20809;-60
2021/12/06 08:35:57;;;;;;;2.90;1.67;;;;;;;18.56;51.80;100226.44;5093852;28;20228;-61
2021/12/06 08:38:25;;;;;;;3.37;1.77;;;;;;;18.61;51.64;100231.81;5094481;28;20181;-61
2021/12/06 08:40:50;;;;;;;2.63;1.60;;;;;;;18.56;51.92;100235.81;5094286;28;20558;-60
2021/12/06 08:43:17;;;;;;;2.80;1.60;;;;;;;18.51;52.27;100235.34;5105933;28;20426;-61
2021/12/06 08:46:04;;;;;;;2.60;1.77;;;;;;;18.53;52.06;100230.88;5113436;28;20174;-61
2021/12/06 08:48:31;;;;;;;3.40;1.77;;;;;;;18.51;52.05;100233.28;5092492;28;20445;-60
2021/12/06 08:51:00;;;;;;;3.17;1.97;;;;;;;18.59;51.73;100223.63;5113142;28;20415;-61
2021/12/06 08:53:25;;;;;;;2.43;1.67;;;;;;;18.55;51.61;100228.47;5094690;28;20488;-61
2021/12/06 08:55:51;;;;;;;3.73;1.80;;;;;;;18.56;51.79;100227.25;5098739;28;20424;-61
2021/12/06 08:58:17;;;;;;;3.33;1.70;;;;;;;18.54;52.34;100225.97;5093566;28;20155;-60
2021/12/06 09:00:42;;;;;;;2.63;1.70;;;;;;;18.53;51.91;100225.16;5101873;28;20213;-61
2021/12/06 09:03:08;;;;;;;3.50;2.00;;;;;;;18.53;52.11;100225.16;5106169;28;20205;-61
2021/12/06 09:05:36;;;;;;;2.13;1.37;;;;;;;18.54;51.94;100229.66;5113234;28;20211;-61
2021/12/06 09:08:03;;;;;;;2.67;1.57;;;;;;;18.53;51.96;100224.31;5103831;28;20174;-60
2021/12/06 09:10:29;;;;;;;2.80;1.80;;;;;;;18.51;52.03;100221.84;5093930;28;20456;-61
2021/12/06 09:12:55;;;;;;;2.93;1.67;;;;;;;18.51;51.89;100227.56;5094148;28;20518;-60
2021/12/06 09:15:20;;;;;;;2.63;1.70;;;;;;;18.48;52.08;100234.06;5121509;27;20422;-61
2021/12/06 09:17:46;;;;;;;2.40;1.70;;;;;;;18.52;51.88;100229.22;5134045;27;20605;-61
2021/12/06 09:20:12;;;;;;;2.87;1.80;;;;;;;18.55;51.87;100233.34;5105895;27;20184;-61
2021/12/06 09:22:38;;;;;;;2.10;1.40;;;;;;;18.53;51.83;100232.91;5112944;28;20181;-61
2021/12/06 09:25:04;;;;;;;3.40;2.03;;;;;;;18.54;52.02;100238.25;5108005;28;20421;-61
2021/12/06 09:27:29;;;;;;;3.57;2.13;;;;;;;18.55;52.36;100222.72;5109426;28;20173;-61
2021/12/06 09:29:57;;;;;;;3.20;1.80;;;;;;;18.53;51.80;100233.75;5112521;28;20450;-61
2021/12/06 09:32:23;;;;;;;2.70;1.70;;;;;;;18.55;51.94;100228.47;5114281;28;20174;-61
2021/12/06 09:34:48;;;;;;;2.77;1.97;;;;;;;18.51;51.79;100230.41;5109303;28;20489;-61
2021/12/06 09:37:14;;;;;;;2.67;1.90;;;;;;;18.56;51.88;100241.53;5113653;28;20166;-61
2021/12/06 09:39:40;;;;;;;2.80;1.80;;;;;;;18.56;51.93;100244.38;5110100;28;20178;-61
2021/12/06 09:42:06;;;;;;;2.97;1.90;;;;;;;18.54;52.06;100248.84;5097986;28;20186;-61
2021/12/06 09:44:31;;;;;;;2.50;1.70;;;;;;;18.56;51.83;100252.16;5073973;28;20205;-61
2021/12/06 09:46:56;;;;;;;2.20;1.50;;;;;;;18.62;51.82;100260.00;5097586;28;20190;-62
2021/12/06 09:49:23;;;;;;;2.60;1.67;;;;;;;18.62;51.64;100265.72;5095422;28;20204;-62
2021/12/06 09:51:51;;;;;;;2.60;1.60;;;;;;;18.56;51.94;100264.41;5092380;28;20175;-61
2021/12/06 09:54:21;;;;;;;2.37;1.73;;;;;;;18.60;51.77;100265.31;5093227;28;20824;-61
2021/12/06 09:56:47;;;;;;;4.70;1.80;;;;;;;18.59;51.64;100268.53;5109082;28;20492;-61
2021/12/06 09:59:17;;;;;;;2.80;1.77;;;;;;;18.54;51.74;100263.97;5111933;28;21331;-62
2021/12/06 10:01:47;;;;;;;2.67;1.67;;;;;;;18.54;52.04;100266.84;5112732;27;20945;-61
2021/12/06 10:04:15;;;;;;;3.13;1.40;;;;;;;18.60;51.76;100268.16;5098589;28;20425;-61
2021/12/06 10:06:40;;;;;;;2.50;1.73;;;;;;;18.58;51.73;100259.16;5094481;28;20463;-61
2021/12/06 10:09:07;;;;;;;2.80;1.53;;;;;;;18.54;52.27;100255.41;5115010;27;20448;-61
2021/12/06 10:11:33;;;;;;;2.90;1.90;;;;;;;18.55;52.20;100253.34;5108702;28;20174;-61
2021/12/06 10:13:58;;;;;;;2.10;1.50;;;;;;;18.62;51.56;100262.06;5095008;28;20417;-61
2021/12/06 10:16:24;;;;;;;2.87;1.90;;;;;;;18.55;51.94;100257.03;5115877;27;20269;-61
2021/12/06 10:18:50;;;;;;;2.80;1.73;;;;;;;18.56;51.69;100260.75;5106141;28;20205;-61
2021/12/06 10:21:16;;;;;;;3.30;1.70;;;;;;;18.54;51.74;100263.97;5112157;28;20649;-61
2021/12/06 10:23:42;;;;;;;2.70;1.73;;;;;;;18.55;52.02;100261.94;5101681;28;20174;-61
2021/12/06 10:26:10;;;;;;;2.87;1.80;;;;;;;18.55;51.82;100257.03;5112012;28;20166;-61
2021/12/06 10:28:39;;;;;;;3.20;1.77;;;;;;;18.57;52.14;100251.75;5098302;28;20436;-61
2021/12/06 10:31:07;;;;;;;2.80;1.90;;;;;;;18.54;52.24;100248.84;5091887;28;20993;-62
2021/12/06 10:33:34;;;;;;;3.00;2.03;;;;;;;18.53;52.05;100253.75;5091174;28;20421;-61
2021/12/06 10:36:03;;;;;;;2.80;1.43;;;;;;;18.53;51.87;100252.91;5094233;28;20428;-61
2021/12/06 10:38:34;;;;;;;3.40;1.80;;;;;;;18.54;52.21;100252.53;5108236;28;20427;-61
2021/12/06 10:41:05;;;;;;;2.27;1.50;;;;;;;18.57;51.81;100250.94;5112005;28;20438;-61
2021/12/06 10:43:30;;;;;;;2.40;1.80;;;;;;;18.55;51.91;100244.78;5112236;28;20396;-61
2021/12/06 10:45:56;;;;;;;2.70;1.83;;;;;;;18.57;52.02;100248.91;5108644;28;20439;-61
2021/12/06 10:48:30;;;;;;;2.53;1.60;;;;;;;18.59;52.02;100248.53;5094472;28;20177;-61
2021/12/06 10:51:00;;;;;;;3.53;1.70;;;;;;;18.57;51.21;100245.22;5090941;28;20177;-61
2021/12/06 10:53:36;;;;;;;2.23;1.60;;;;;;;18.57;52.09;100240.31;5098093;28;20435;-61
2021/12/06 10:56:02;;;;;;;2.73;1.73;;;;;;;18.50;52.19;100237.34;5090327;28;20427;-61
2021/12/06 10:58:29;;;;;;;2.67;1.77;;;;;;;18.56;51.89;100238.69;5093443;28;20435;-61
2021/12/06 11:01:07;;;;;;;3.07;2.07;;;;;;;18.58;52.03;100244.84;5122561;27;20183;-61
2021/12/06 11:03:45;;;;;;;2.87;1.70;;;;;;;18.57;51.74;100248.09;5130716;27;20406;-61
2021/12/06 11:06:20;;;;;;;2.40;1.70;;;;;;;18.59;51.60;100242.81;5132399;27;20422;-61
2021/12/06 11:08:48;;;;;;;3.63;1.77;;;;;;;18.58;51.81;100239.13;5108392;27;20510;-61
2021/12/06 11:11:26;;;;;;;2.40;1.63;;;;;;;18.60;51.77;100225.28;5131111;27;20835;-61
2021/12/06 11:13:56;;;;;;;2.30;1.50;;;;;;;18.58;51.67;100216.25;5107130;27;20854;-61
2021/12/06 11:16:23;;;;;;;2.73;1.83;;;;;;;18.54;51.94;100226.81;5092520;27;20417;-61
2021/12/06 11:18:56;;;;;;;2.50;1.50;;;;;;;18.55;51.68;100208.44;5095151;28;20800;-62
2021/12/06 11:21:29;;;;;;;2.70;2.00;;;;;;;18.62;51.85;100216.31;5111073;28;20403;-61
2021/12/06 11:24:24;;;;;;;2.60;1.63;;;;;;;18.60;51.72;100208.13;5106804;28;20473;-61
2021/12/06 11:27:09;;;;;;;2.23;1.30;;;;;;;18.56;52.03;100209.28;5082133;28;20424;-61
2021/12/06 11:29:41;;;;;;;2.83;1.50;;;;;;;18.61;52.18;100212.63;5092178;28;20532;-61
2021/12/06 11:32:14;;;;;;;3.53;1.63;;;;;;;18.63;51.68;100217.97;5094797;28;20425;-61
2021/12/06 11:35:04;;;;;;;2.07;1.33;;;;;;;18.62;51.85;100214.25;5090062;28;20848;-61
2021/12/06 11:37:42;;;;;;;3.33;1.80;;;;;;;18.63;51.49;100218.81;5081738;28;20953;-61
2021/12/06 11:40:13;;;;;;;3.27;1.87;;;;;;;18.58;51.95;100213.41;5094787;28;20424;-61